Time;durP1;ratioP1;P1;durP2;ratioP2;P2;SDS_P1;SDS_P2;PMS_P1;PMS_P2;Temp;Humidity;BMP_temperature;BMP_pressure;BME280_temperature;BME280_humidity;BME280_pressure;Samples;Min_cycle;Max_cycle;Signal;HPM_P1;HPM_P2
2021/03/29 00:01:07;;;;;;;5.60;2.70;;;;;;;5.76;69.72;100196.16;5013758;28;20046;-68
2021/03/29 00:03:32;;;;;;;5.47;2.50;;;;;;;5.68;69.38;100194.19;5013748;28;20034;-70
2021/03/29 00:05:58;;;;;;;5.70;2.42;;;;;;;5.67;69.75;100184.44;5014478;28;20029;-68
2021/03/29 00:08:27;;;;;;;6.72;2.33;;;;;;;5.61;70.26;100194.91;5012412;28;20466;-68
2021/03/29 00:10:54;;;;;;;;;;;;;;;5.56;69.99;100194.44;5011496;28;20018;-68
2021/03/29 00:13:21;;;;;;;7.43;2.47;;;;;;;5.55;70.11;100195.41;5011903;28;20419;-68
2021/03/29 00:15:50;;;;;;;10.25;2.85;;;;;;;5.52;70.34;100191.16;5011705;28;20104;-68
2021/03/29 00:18:17;;;;;;;6.83;2.53;;;;;;;5.54;70.17;100201.78;5005295;28;20083;-68
2021/03/29 00:20:49;;;;;;;8.18;2.70;;;;;;;5.48;70.48;100182.56;5004826;28;20270;-68
2021/03/29 00:23:16;;;;;;;5.65;3.05;;;;;;;5.56;70.02;100200.66;5007689;28;20084;-68
2021/03/29 00:25:41;;;;;;;8.90;3.08;;;;;;;5.52;70.54;100190.31;5010482;28;20479;-68
2021/03/29 00:28:07;;;;;;;5.15;2.30;;;;;;;5.62;70.08;100196.56;4996147;28;20157;-68
2021/03/29 00:30:38;;;;;;;8.30;2.90;;;;;;;5.60;69.89;100188.66;5002356;28;20112;-68
2021/03/29 00:33:05;;;;;;;6.28;2.67;;;;;;;5.64;70.63;100197.28;5016212;28;20387;-68
2021/03/29 00:35:33;;;;;;;9.25;3.10;;;;;;;5.59;70.33;100208.44;5015668;28;20395;-68
2021/03/29 00:37:59;;;;;;;10.50;2.90;;;;;;;5.74;70.07;100190.13;5015356;28;20034;-68
2021/03/29 00:40:27;;;;;;;9.20;2.60;;;;;;;5.57;70.15;100204.19;4998713;28;20027;-68
2021/03/29 00:43:00;;;;;;;6.30;2.83;;;;;;;5.53;70.63;100209.00;5023729;28;20029;-68
2021/03/29 00:45:27;;;;;;;8.02;2.67;;;;;;;5.56;71.01;100210.56;5013880;28;20399;-68
2021/03/29 00:47:54;;;;;;;6.63;2.70;;;;;;;5.65;70.85;100201.66;5014119;28;20040;-68
2021/03/29 00:50:29;;;;;;;5.78;2.75;;;;;;;5.61;70.44;100211.00;5016144;28;20509;-68
2021/03/29 00:52:55;;;;;;;10.60;2.83;;;;;;;5.42;71.30;100204.59;5013818;28;20026;-68
2021/03/29 00:55:21;;;;;;;4.80;2.70;;;;;;;5.39;71.46;100207.50;5013349;28;20038;-68
2021/03/29 00:57:47;;;;;;;9.75;2.90;;;;;;;5.46;71.16;100203.31;5001191;28;20034;-68
2021/03/29 01:00:26;;;;;;;13.02;2.55;;;;;;;5.41;71.54;100210.91;5012397;28;20038;-68
2021/03/29 01:02:52;;;;;;;7.63;2.92;;;;;;;5.32;71.83;100216.22;5015751;28;20442;-68
2021/03/29 01:05:20;;;;;;;7.97;3.00;;;;;;;5.23;72.07;100217.91;5015344;28;20053;-69
2021/03/29 01:07:49;;;;;;;5.07;2.60;;;;;;;5.12;72.23;100210.78;4999496;28;20041;-68
2021/03/29 01:10:16;;;;;;;8.65;2.80;;;;;;;5.10;72.40;100209.22;5010042;28;20080;-70
2021/03/29 01:12:43;;;;;;;5.53;3.08;;;;;;;5.05;72.03;100209.63;5010448;28;20030;-70
2021/03/29 01:15:12;;;;;;;7.15;2.70;;;;;;;5.01;72.51;100198.31;4998049;28;20030;-70
2021/03/29 01:17:40;;;;;;;8.70;3.40;;;;;;;5.00;72.33;100214.53;5006859;28;20536;-70
2021/03/29 01:20:28;;;;;;;7.82;3.03;;;;;;;4.97;72.55;100214.81;5015236;28;20483;-69
2021/03/29 01:22:56;;;;;;;9.53;3.17;;;;;;;5.01;72.40;100211.72;5005578;28;20017;-70
2021/03/29 01:25:31;;;;;;;10.02;3.13;;;;;;;4.97;72.36;100215.66;5014926;28;20277;-70
2021/03/29 01:28:02;;;;;;;6.70;2.90;;;;;;;4.93;72.73;100224.97;5000013;28;20030;-70
2021/03/29 01:30:30;;;;;;;8.63;3.53;;;;;;;4.86;73.08;100206.84;5003830;28;20033;-69
2021/03/29 01:32:58;;;;;;;8.68;3.03;;;;;;;5.09;72.68;100216.44;5013444;28;20484;-70
2021/03/29 01:35:29;;;;;;;5.05;3.00;;;;;;;4.92;72.61;100223.25;5014934;28;20084;-70
2021/03/29 01:37:55;;;;;;;8.88;3.15;;;;;;;5.03;72.88;100225.00;4998194;28;20037;-69
2021/03/29 01:40:21;;;;;;;7.85;3.30;;;;;;;4.84;72.76;100220.38;5002806;28;20048;-70
2021/03/29 01:42:48;;;;;;;7.20;2.97;;;;;;;4.83;73.48;100226.72;5014575;28;20042;-69
2021/03/29 01:45:14;;;;;;;6.97;2.83;;;;;;;4.88;72.95;100216.47;5013050;28;20055;-70
2021/03/29 01:47:41;;;;;;;6.78;2.80;;;;;;;4.82;73.25;100225.00;5015223;28;20022;-69
2021/03/29 01:50:09;;;;;;;9.95;2.80;;;;;;;4.89;72.93;100218.16;5014943;28;20022;-70
2021/03/29 01:52:35;;;;;;;9.15;2.90;;;;;;;4.70;72.60;100215.34;5013191;28;20066;-69
2021/03/29 01:55:03;;;;;;;9.98;2.90;;;;;;;4.77;72.91;100227.25;5024231;28;20041;-70
2021/03/29 01:57:29;;;;;;;10.50;2.58;;;;;;;4.61;73.58;100219.66;5035060;28;20044;-70
2021/03/29 01:59:54;;;;;;;5.60;2.45;;;;;;;4.54;73.62;100230.06;5031853;28;20047;-70
2021/03/29 02:02:20;;;;;;;7.88;2.97;;;;;;;4.67;73.45;100223.66;5037389;28;20029;-70
2021/03/29 02:04:47;;;;;;;7.10;2.97;;;;;;;4.55;74.35;100222.84;5035415;28;20040;-70
2021/03/29 02:07:13;;;;;;;4.35;2.58;;;;;;;4.42;73.80;100215.00;5024329;28;20162;-70
2021/03/29 02:09:41;;;;;;;11.60;2.90;;;;;;;4.44;74.27;100231.81;5028288;28;20018;-70
2021/03/29 02:12:08;;;;;;;7.47;3.05;;;;;;;4.32;74.44;100228.34;5017178;28;20010;-70
2021/03/29 02:14:35;;;;;;;7.15;2.75;;;;;;;4.16;74.56;100228.75;5017611;28;20014;-69
2021/03/29 02:17:05;;;;;;;4.88;2.65;;;;;;;4.21;74.65;100223.00;5025183;28;20034;-69
2021/03/29 02:19:31;;;;;;;6.38;2.97;;;;;;;4.01;74.66;100213.97;5029318;28;20022;-69
2021/03/29 02:21:56;;;;;;;6.10;2.88;;;;;;;4.00;75.28;100222.97;5035810;28;20049;-69
2021/03/29 02:24:22;;;;;;;6.57;2.83;;;;;;;3.91;75.53;100210.34;5032287;28;20028;-69
2021/03/29 02:26:48;;;;;;;6.05;2.70;;;;;;;3.97;76.15;100220.53;5035754;28;20026;-69
2021/03/29 02:29:18;;;;;;;7.15;3.33;;;;;;;3.90;76.02;100224.69;5032824;28;20086;-69
2021/03/29 02:31:44;;;;;;;10.32;3.20;;;;;;;3.86;76.39;100225.94;5030066;28;20057;-69
2021/03/29 02:34:10;;;;;;;7.82;3.10;;;;;;;3.83;76.33;100232.38;5023524;28;20033;-69
2021/03/29 02:36:36;;;;;;;8.63;2.97;;;;;;;3.76;76.21;100230.31;5015096;28;20084;-69
2021/03/29 02:39:03;;;;;;;7.43;2.70;;;;;;;3.56;76.05;100219.38;5013114;28;20084;-69
2021/03/29 02:41:30;;;;;;;7.65;3.13;;;;;;;3.71;77.44;100223.50;4996240;28;20037;-69
2021/03/29 02:43:57;;;;;;;10.23;3.25;;;;;;;3.76;76.95;100227.66;5009918;28;20087;-69
2021/03/29 02:46:30;;;;;;;10.05;3.60;;;;;;;3.61;77.07;100227.91;5014136;28;20120;-68
2021/03/29 02:48:59;;;;;;;9.50;3.55;;;;;;;3.62;77.44;100234.13;5013594;28;20034;-69
2021/03/29 02:51:25;;;;;;;9.52;3.95;;;;;;;3.57;77.58;100230.97;5013186;28;20034;-69
2021/03/29 02:54:11;;;;;;;8.02;3.55;;;;;;;3.63;77.46;100225.13;5012636;28;20030;-68
2021/03/29 02:56:45;;;;;;;8.07;3.05;;;;;;;3.55;77.48;100238.25;5013893;28;20042;-69
2021/03/29 02:59:17;;;;;;;10.20;3.60;;;;;;;3.56;77.58;100224.75;5013138;28;20038;-69
2021/03/29 03:01:43;;;;;;;11.70;3.50;;;;;;;3.55;77.55;100236.44;5013948;28;20056;-69
2021/03/29 03:04:12;;;;;;;7.45;3.53;;;;;;;3.53;77.84;100235.69;5007882;28;20101;-68
2021/03/29 03:06:38;;;;;;;6.00;3.40;;;;;;;3.56;78.00;100235.44;5012432;28;20095;-69
2021/03/29 03:09:06;;;;;;;6.60;3.20;;;;;;;3.67;77.63;100242.63;5013496;28;20430;-68
2021/03/29 03:11:33;;;;;;;6.28;3.55;;;;;;;3.63;77.65;100247.38;5013558;28;20025;-69
2021/03/29 03:14:01;;;;;;;10.50;3.90;;;;;;;3.62;77.68;100245.69;5013969;28;20490;-69
2021/03/29 03:16:27;;;;;;;10.23;3.80;;;;;;;3.58;77.79;100244.22;5013609;28;20048;-69
2021/03/29 03:18:52;;;;;;;12.00;3.78;;;;;;;3.47;77.71;100237.03;5020906;28;20355;-69
2021/03/29 03:21:19;;;;;;;6.00;3.05;;;;;;;3.49;77.31;100251.16;5007807;28;20388;-68
2021/03/29 03:23:56;;;;;;;6.35;3.50;;;;;;;3.58;77.74;100246.88;4993666;28;20027;-69
2021/03/29 03:26:26;;;;;;;4.53;3.17;;;;;;;3.69;77.92;100246.91;5008862;28;20022;-69
2021/03/29 03:28:53;;;;;;;12.45;3.78;;;;;;;3.70;77.19;100239.72;5013321;28;20022;-69
2021/03/29 03:31:19;;;;;;;12.68;4.00;;;;;;;3.79;77.18;100256.84;4998060;28;20026;-69
2021/03/29 03:33:46;;;;;;;6.03;3.05;;;;;;;3.68;77.27;100247.84;5007594;28;20101;-68
2021/03/29 03:36:13;;;;;;;6.88;3.00;;;;;;;3.69;77.32;100248.69;5014473;28;20026;-69
2021/03/29 03:38:42;;;;;;;8.77;3.08;;;;;;;3.65;77.15;100258.81;5013138;28;20052;-69
2021/03/29 03:41:18;;;;;;;8.30;3.22;;;;;;;3.59;77.29;100256.63;5012763;28;20032;-69
2021/03/29 03:43:47;;;;;;;9.02;3.90;;;;;;;3.60;77.03;100266.34;5013201;28;20100;-69
2021/03/29 03:46:15;;;;;;;;;;;;;;;3.53;76.52;100262.47;5013707;28;20022;-69
2021/03/29 03:48:42;;;;;;;7.75;3.20;;;;;;;3.50;77.71;100260.88;5010202;28;19916;-68
2021/03/29 03:51:09;;;;;;;10.57;3.22;;;;;;;3.45;78.03;100259.53;5012622;28;20029;-68
2021/03/29 03:53:35;;;;;;;6.13;2.80;;;;;;;3.50;77.87;100260.03;5012498;28;20024;-69
2021/03/29 03:56:02;;;;;;;6.40;3.03;;;;;;;3.46;77.82;100269.28;5012860;28;20164;-69
2021/03/29 03:58:29;;;;;;;5.60;2.85;;;;;;;3.45;77.82;100265.75;5012638;28;20053;-68
2021/03/29 04:00:56;;;;;;;7.22;2.97;;;;;;;3.45;77.80;100256.88;5010712;28;20022;-71
2021/03/29 04:03:26;;;;;;;8.15;3.03;;;;;;;3.58;76.76;100273.66;5010489;28;20059;-68
2021/03/29 04:05:51;;;;;;;9.30;3.03;;;;;;;3.60;76.97;100262.84;5009770;28;20041;-68
2021/03/29 04:08:16;;;;;;;6.72;2.72;;;;;;;3.60;77.12;100260.16;5010987;28;20025;-69
2021/03/29 04:10:52;;;;;;;8.00;3.40;;;;;;;3.72;76.87;100275.22;5012293;28;20034;-69
2021/03/29 04:13:26;;;;;;;11.07;3.45;;;;;;;3.76;76.97;100265.97;5008102;28;20395;-66
2021/03/29 04:15:51;;;;;;;6.70;3.53;;;;;;;3.84;76.88;100263.53;4994726;28;20515;-70
2021/03/29 04:18:17;;;;;;;7.25;3.10;;;;;;;3.91;76.75;100270.09;5011721;28;20037;-71
2021/03/29 04:20:43;;;;;;;5.60;2.97;;;;;;;4.02;76.57;100271.03;5010564;28;20579;-70
2021/03/29 04:23:08;;;;;;;7.60;3.22;;;;;;;4.11;76.24;100278.31;5012331;28;20022;-71
2021/03/29 04:25:34;;;;;;;7.60;3.03;;;;;;;4.24;76.06;100273.66;5004304;28;20034;-75
2021/03/29 04:28:00;;;;;;;6.63;3.40;;;;;;;4.21;76.14;100281.09;5010022;28;20105;-71
2021/03/29 04:30:46;;;;;;;8.02;3.22;;;;;;;4.25;75.45;100275.38;5004606;28;20029;-78
2021/03/29 04:33:12;;;;;;;11.88;3.47;;;;;;;4.28;74.85;100275.09;5011523;28;20052;-75
2021/03/29 04:35:37;;;;;;;9.50;3.53;;;;;;;4.17;75.09;100277.81;5008575;28;20030;-78
2021/03/29 04:38:03;;;;;;;11.07;3.72;;;;;;;4.11;75.47;100268.47;5001424;28;20022;-77
2021/03/29 04:40:30;;;;;;;10.50;4.20;;;;;;;4.00;75.34;100273.00;5006229;28;20480;-74
2021/03/29 04:42:56;;;;;;;6.88;4.00;;;;;;;3.95;75.48;100278.72;5011674;28;20324;-70
2021/03/29 04:45:22;;;;;;;6.43;4.07;;;;;;;3.87;76.26;100282.00;5012696;28;20442;-67
2021/03/29 04:47:48;;;;;;;9.75;4.47;;;;;;;3.77;76.03;100256.09;5034732;28;20033;-68
2021/03/29 04:50:15;;;;;;;10.30;4.05;;;;;;;3.94;75.74;100283.22;5036288;28;20014;-67
2021/03/29 04:52:41;;;;;;;9.05;4.07;;;;;;;3.98;75.88;100278.47;5026152;28;20089;-78
2021/03/29 04:55:08;;;;;;;21.60;5.13;;;;;;;4.10;74.81;100269.44;5034279;28;20033;-74
2021/03/29 04:57:33;;;;;;;9.63;4.97;;;;;;;3.96;75.59;100267.03;5034667;28;20094;-77
2021/03/29 05:00:00;;;;;;;10.95;4.63;;;;;;;4.19;74.52;100265.13;5029092;28;20021;-74
2021/03/29 05:02:25;;;;;;;10.18;4.68;;;;;;;4.18;74.76;100275.00;5034148;28;20022;-74
2021/03/29 05:04:50;;;;;;;8.85;3.97;;;;;;;4.03;75.02;100264.69;5031896;28;20042;-74
2021/03/29 05:07:16;;;;;;;10.20;3.83;;;;;;;3.95;75.16;100262.66;5034465;28;20014;-73
2021/03/29 05:09:41;;;;;;;7.10;3.17;;;;;;;3.99;74.90;100282.84;5032333;28;20037;-71
2021/03/29 05:12:12;;;;;;;8.88;3.78;;;;;;;4.11;75.13;100289.91;5032232;28;20033;-75
2021/03/29 05:14:39;;;;;;;8.35;3.72;;;;;;;4.22;74.96;100280.09;5023026;28;20042;-75
2021/03/29 05:17:07;;;;;;;8.02;3.05;;;;;;;4.33;73.80;100297.00;5030036;28;20044;-73
2021/03/29 05:19:36;;;;;;;7.20;3.38;;;;;;;4.39;74.30;100295.66;5028873;28;20025;-74
2021/03/29 05:22:03;;;;;;;;;;;;;;;4.48;73.28;100275.25;5024304;28;20006;-76
2021/03/29 05:24:28;;;;;;;7.32;3.90;;;;;;;4.34;74.13;100284.47;5035563;28;19913;-77
2021/03/29 05:26:54;;;;;;;7.88;3.67;;;;;;;4.35;73.89;100281.66;5034722;28;20068;-75
2021/03/29 05:29:20;;;;;;;6.60;3.90;;;;;;;4.46;73.74;100278.09;5031420;28;20030;-76
2021/03/29 05:31:45;;;;;;;7.07;3.28;;;;;;;4.48;73.72;100276.13;5025257;28;20022;-74
2021/03/29 05:34:14;;;;;;;6.85;3.22;;;;;;;4.54;73.86;100299.75;5027992;28;20029;-77
2021/03/29 05:36:40;;;;;;;6.07;2.83;;;;;;;4.74;73.13;100286.47;5022420;28;20126;-75
2021/03/29 05:39:08;;;;;;;10.55;3.13;;;;;;;5.44;72.60;100301.91;5025816;28;20064;-75
2021/03/29 05:41:42;;;;;;;10.07;3.65;;;;;;;6.55;68.41;100308.22;5025397;28;20022;-75
2021/03/29 05:44:10;;;;;;;9.15;3.15;;;;;;;6.57;67.97;100309.75;5034727;28;20055;-70
2021/03/29 05:46:42;;;;;;;6.07;2.50;;;;;;;6.09;68.77;100309.69;5037406;28;20034;-73
2021/03/29 05:49:08;;;;;;;5.03;2.60;;;;;;;5.90;68.72;100319.34;5024978;28;20032;-74
2021/03/29 05:51:38;;;;;;;10.93;2.80;;;;;;;5.67;69.38;100320.53;5032791;28;20026;-71
2021/03/29 05:54:05;;;;;;;;;;;;;;;5.49;70.67;100331.88;5034550;28;20030;-73
2021/03/29 05:56:32;;;;;;;8.80;3.75;;;;;;;5.42;70.58;100333.41;5030946;28;19945;-72
2021/03/29 06:01:42;;;;;;;10.70;2.97;;;;;;;5.39;70.61;100339.03;5013433;28;20049;-74
2021/03/29 06:04:07;;;;;;;6.45;2.90;;;;;;;5.47;70.44;100327.63;5012986;28;20030;-73
2021/03/29 06:06:33;;;;;;;11.95;2.90;;;;;;;5.65;70.43;100330.53;5013737;28;20041;-68
2021/03/29 06:08:59;;;;;;;8.07;3.22;;;;;;;5.88;70.08;100341.97;5003513;28;20026;-73
2021/03/29 06:11:39;;;;;;;13.50;3.05;;;;;;;6.03;69.60;100324.53;4997164;28;20101;-73
2021/03/29 06:14:21;;;;;;;6.95;2.58;;;;;;;6.30;68.66;100337.31;5003795;28;20048;-73
2021/03/29 06:17:03;;;;;;;9.70;2.80;;;;;;;6.36;68.12;100347.50;5006097;28;20097;-74
2021/03/29 06:19:42;;;;;;;13.23;3.00;;;;;;;6.83;66.66;100348.69;5016016;28;20064;-77
2021/03/29 06:22:10;;;;;;;8.80;2.80;;;;;;;7.05;65.77;100352.94;4997360;28;20057;-77
2021/03/29 06:24:53;;;;;;;7.57;2.72;;;;;;;7.38;65.62;100340.84;5011561;28;20041;-75
2021/03/29 06:27:22;;;;;;;10.15;2.40;;;;;;;7.54;65.32;100338.41;5016456;28;20391;-78
2021/03/29 06:29:48;;;;;;;7.80;2.65;;;;;;;7.91;64.73;100351.03;5008537;28;20032;-71
2021/03/29 06:32:18;;;;;;;12.95;2.97;;;;;;;8.00;64.59;100350.16;5006786;28;20543;-73
2021/03/29 06:34:44;;;;;;;6.72;2.20;;;;;;;8.01;63.95;100353.69;5012777;28;20514;-72
2021/03/29 06:37:09;;;;;;;5.10;2.13;;;;;;;8.11;62.91;100357.19;5001619;28;20056;-78
2021/03/29 06:39:37;;;;;;;11.32;2.85;;;;;;;8.20;63.65;100342.84;5006513;28;20022;-76
2021/03/29 06:42:03;;;;;;;9.77;2.97;;;;;;;8.35;63.99;100354.78;5012707;28;20034;-81
2021/03/29 06:44:37;;;;;;;6.75;3.55;;;;;;;8.51;62.86;100358.69;5013343;28;20109;-76
2021/03/29 06:47:14;;;;;;;7.32;2.75;;;;;;;9.11;62.16;100345.44;5009822;28;20439;-77
2021/03/29 06:49:46;;;;;;;8.55;2.78;;;;;;;12.00;54.79;100347.78;5007357;28;20026;-74
2021/03/29 06:52:27;;;;;;;11.13;2.40;;;;;;;12.40;52.10;100348.63;5012481;28;20030;-71
2021/03/29 06:54:55;;;;;;;5.53;2.50;;;;;;;11.58;54.17;100340.72;5011363;28;20502;-75
2021/03/29 06:57:31;;;;;;;4.97;2.70;;;;;;;10.93;56.13;100354.31;5011807;28;20026;-71
2021/03/29 06:59:58;;;;;;;7.65;2.60;;;;;;;10.77;54.90;100349.72;5013373;28;20432;-72
2021/03/29 07:02:41;;;;;;;6.88;2.55;;;;;;;11.32;53.79;100359.06;5012172;28;20095;-71
2021/03/29 07:05:07;;;;;;;9.77;2.75;;;;;;;11.22;53.82;100350.25;5006019;28;20032;-69
2021/03/29 07:07:34;;;;;;;8.18;2.67;;;;;;;11.54;53.41;100352.09;5006896;28;20030;-72
2021/03/29 07:10:00;;;;;;;7.32;4.20;;;;;;;11.59;53.01;100353.25;5010488;28;20038;-72
2021/03/29 07:12:31;;;;;;;19.95;5.50;;;;;;;11.01;54.94;100362.44;5012638;28;20387;-77
2021/03/29 07:15:01;;;;;;;16.23;6.03;;;;;;;11.11;54.28;100365.00;5013219;28;20029;-79
2021/03/29 07:17:29;;;;;;;11.35;6.22;;;;;;;13.13;50.83;100358.19;5004207;28;20500;-73
2021/03/29 07:19:56;;;;;;;12.95;5.18;;;;;;;14.78;46.71;100354.53;5012006;28;20063;-75
2021/03/29 07:22:22;;;;;;;12.98;4.18;;;;;;;16.94;42.95;100350.13;5008184;28;20018;-74
2021/03/29 07:24:49;;;;;;;11.07;4.32;;;;;;;17.39;42.09;100353.97;5001716;28;20458;-70
2021/03/29 07:27:15;;;;;;;9.68;2.97;;;;;;;18.77;39.77;100358.56;5024979;28;20079;-72
2021/03/29 07:29:48;;;;;;;4.82;2.47;;;;;;;20.64;35.84;100339.34;5018525;28;20653;-72
2021/03/29 07:32:28;;;;;;;10.70;2.95;;;;;;;23.53;33.15;100340.91;5012806;28;20040;-71
2021/03/29 07:34:53;;;;;;;10.60;2.50;;;;;;;25.27;29.98;100334.88;5000573;28;20037;-77
2021/03/29 07:37:37;;;;;;;9.50;2.72;;;;;;;24.43;29.97;100341.66;5012821;28;20030;-72
2021/03/29 07:40:18;;;;;;;7.93;2.38;;;;;;;22.94;31.49;100355.00;5012382;28;20022;-76
2021/03/29 07:42:51;;;;;;;9.63;2.30;;;;;;;21.38;33.35;100355.69;5012362;28;20403;-87
2021/03/29 07:45:18;;;;;;;8.23;2.60;;;;;;;19.33;36.15;100356.94;5012284;28;20468;-75
2021/03/29 07:47:52;;;;;;;10.30;2.60;;;;;;;18.09;37.82;100368.03;5006199;28;20041;-70
2021/03/29 07:50:26;;;;;;;8.50;2.45;;;;;;;17.55;38.63;100369.13;5012529;28;20014;-76
2021/03/29 07:52:55;;;;;;;6.20;2.15;;;;;;;18.53;36.46;100371.91;5014907;28;20022;-74
2021/03/29 07:55:30;;;;;;;5.43;2.22;;;;;;;18.93;35.78;100363.53;5012199;28;20091;-77
2021/03/29 07:57:56;;;;;;;6.68;2.05;;;;;;;18.10;37.09;100364.28;5011475;28;20064;-76
2021/03/29 08:00:26;;;;;;;4.72;2.38;;;;;;;16.86;39.04;100375.78;5006477;28;20464;-74
2021/03/29 08:02:53;;;;;;;7.97;2.42;;;;;;;17.85;37.91;100369.56;5006852;28;20034;-74
2021/03/29 08:05:37;;;;;;;6.45;2.13;;;;;;;21.11;32.67;100369.78;5011105;28;20025;-73
2021/03/29 08:08:26;;;;;;;4.63;2.25;;;;;;;21.58;30.86;100360.84;5002758;28;20056;-74
2021/03/29 08:11:14;;;;;;;7.10;2.63;;;;;;;19.84;32.56;100362.22;5000533;28;20021;-75
2021/03/29 08:13:53;;;;;;;7.90;2.08;;;;;;;20.21;32.61;100354.03;5011873;28;20116;-80
2021/03/29 08:16:22;;;;;;;4.18;1.77;;;;;;;22.31;29.99;100352.09;5010341;28;20014;-76
2021/03/29 08:19:06;;;;;;;6.95;2.05;;;;;;;22.25;29.86;100366.03;4997007;28;20038;-73
2021/03/29 08:21:49;;;;;;;7.65;2.03;;;;;;;24.26;27.81;100358.31;5017208;28;20037;-76
2021/03/29 08:24:32;;;;;;;5.97;1.73;;;;;;;23.89;28.16;100358.06;5006392;28;20021;-76
2021/03/29 08:27:05;;;;;;;6.90;1.98;;;;;;;24.38;27.07;100363.75;5012248;28;20057;-76
2021/03/29 08:29:36;;;;;;;7.13;1.77;;;;;;;24.43;27.41;100356.34;5009713;28;20034;-77
2021/03/29 08:32:06;;;;;;;5.47;1.92;;;;;;;23.46;28.67;100370.63;5008264;28;20088;-73
2021/03/29 08:34:35;;;;;;;7.03;2.15;;;;;;;19.84;33.02;100370.47;5005205;28;20018;-74
2021/03/29 08:37:05;;;;;;;7.90;2.13;;;;;;;18.34;35.27;100361.88;4996657;28;20026;-75
2021/03/29 08:39:55;;;;;;;5.43;2.28;;;;;;;18.35;35.86;100363.56;5011371;28;20029;-74
2021/03/29 08:42:24;;;;;;;9.80;2.20;;;;;;;18.18;36.24;100365.91;5012438;28;20045;-75
2021/03/29 08:44:52;;;;;;;5.43;2.00;;;;;;;17.35;38.02;100365.56;5001187;28;20029;-74
2021/03/29 08:47:20;;;;;;;5.85;2.13;;;;;;;16.92;39.13;100372.19;5011331;28;20034;-76
2021/03/29 08:49:50;;;;;;;4.60;2.40;;;;;;;17.31;38.60;100379.63;5009201;28;20041;-75
2021/03/29 08:52:16;;;;;;;7.20;2.25;;;;;;;18.19;37.32;100373.09;5004365;28;20034;-76
2021/03/29 08:54:52;;;;;;;6.82;2.60;;;;;;;20.71;33.97;100364.84;4997109;28;20045;-77
2021/03/29 08:57:21;;;;;;;11.75;2.17;;;;;;;23.04;30.78;100351.66;4996352;28;20037;-78
2021/03/29 08:59:51;;;;;;;6.00;2.42;;;;;;;24.24;30.06;100366.88;5025695;28;20025;-73
2021/03/29 09:02:17;;;;;;;4.97;2.22;;;;;;;24.74;28.55;100367.00;5003296;28;20026;-76
2021/03/29 09:04:56;;;;;;;6.13;2.22;;;;;;;23.67;29.83;100372.63;5003762;28;20485;-74
2021/03/29 09:07:29;;;;;;;6.40;2.13;;;;;;;23.15;30.09;100372.81;5007086;28;20049;-78
2021/03/29 09:09:58;;;;;;;6.03;2.17;;;;;;;23.05;30.28;100373.47;5015907;28;20069;-76
2021/03/29 09:12:31;;;;;;;9.50;2.45;;;;;;;23.60;29.64;100366.41;5016055;28;20480;-75
2021/03/29 09:14:57;;;;;;;8.25;2.83;;;;;;;24.17;29.21;100377.28;5015307;28;20041;-72
2021/03/29 09:17:33;;;;;;;7.05;2.25;;;;;;;24.89;28.10;100362.47;5012089;28;20472;-76
2021/03/29 09:19:59;;;;;;;9.00;2.60;;;;;;;22.97;29.82;100366.41;5002646;28;20018;-74
2021/03/29 09:22:30;;;;;;;6.40;2.28;;;;;;;22.27;31.26;100380.41;5008378;28;20030;-71
2021/03/29 09:24:56;;;;;;;4.63;2.08;;;;;;;24.19;28.38;100375.09;5010027;28;20502;-73
2021/03/29 09:27:36;;;;;;;7.20;2.38;;;;;;;24.62;27.91;100361.56;5014751;28;20030;-73
2021/03/29 09:30:07;;;;;;;9.10;2.33;;;;;;;24.81;28.11;100364.84;5013885;28;20022;-76
2021/03/29 09:32:33;;;;;;;5.22;2.53;;;;;;;26.17;26.99;100349.72;5018499;28;20036;-76
2021/03/29 09:34:59;;;;;;;9.07;2.13;;;;;;;26.83;26.50;100343.66;4998164;28;20373;-75
2021/03/29 09:37:27;;;;;;;7.47;2.47;;;;;;;27.31;24.94;100357.38;5016730;28;20498;-72
2021/03/29 09:40:00;;;;;;;4.80;1.98;;;;;;;28.00;24.49;100364.31;5010341;28;20026;-76
2021/03/29 09:42:36;;;;;;;4.63;1.88;;;;;;;26.84;25.44;100369.47;5030475;28;20030;-74
2021/03/29 09:45:04;;;;;;;6.05;2.08;;;;;;;27.38;25.16;100362.63;5011616;28;20026;-77
2021/03/29 09:47:30;;;;;;;7.57;2.03;;;;;;;26.08;26.07;100373.53;5011111;28;20029;-73
2021/03/29 09:49:56;;;;;;;5.47;1.77;;;;;;;27.07;25.22;100370.91;5010785;28;20088;-75
2021/03/29 09:52:37;;;;;;;4.47;1.73;;;;;;;26.72;25.22;100366.09;5013886;28;20026;-74
2021/03/29 09:55:04;;;;;;;7.40;2.10;;;;;;;27.63;25.15;100375.72;5012378;28;20028;-73
2021/03/29 09:57:37;;;;;;;6.85;1.92;;;;;;;28.38;24.04;100364.78;5013617;28;20029;-72
2021/03/29 10:00:18;;;;;;;10.07;2.08;;;;;;;29.10;24.08;100367.25;5011905;28;20464;-72
2021/03/29 10:02:45;;;;;;;3.85;1.85;;;;;;;29.19;22.80;100355.22;5011507;28;20029;-77
2021/03/29 10:05:11;;;;;;;7.03;1.90;;;;;;;28.12;24.39;100352.88;5008144;28;20080;-76
2021/03/29 10:07:54;;;;;;;5.03;2.00;;;;;;;27.72;24.22;100372.13;5002888;28;20030;-74
2021/03/29 10:10:28;;;;;;;3.72;1.65;;;;;;;26.98;24.59;100365.03;4998392;28;20037;-80
2021/03/29 10:13:05;;;;;;;6.03;2.20;;;;;;;26.75;24.92;100346.09;5006114;28;20026;-78
2021/03/29 10:15:32;;;;;;;6.43;1.83;;;;;;;26.10;25.77;100356.63;5015618;28;20415;-72
2021/03/29 10:18:09;;;;;;;9.10;1.95;;;;;;;28.30;24.46;100354.22;5002358;28;20029;-72
2021/03/29 10:20:36;;;;;;;3.53;1.65;;;;;;;29.53;22.88;100345.19;5006084;28;20026;-72
2021/03/29 10:23:27;;;;;;;4.75;1.50;;;;;;;30.48;21.69;100344.53;5000281;28;20097;-71
2021/03/29 10:26:16;;;;;;;8.05;2.20;;;;;;;28.81;22.75;100352.06;5011263;28;20037;-68
2021/03/29 10:28:55;;;;;;;5.95;1.70;;;;;;;28.93;22.68;100345.34;5001557;28;20525;-69
2021/03/29 10:31:20;;;;;;;9.85;1.70;;;;;;;28.17;23.69;100352.88;5009699;28;20158;-68
2021/03/29 10:33:46;;;;;;;4.72;1.70;;;;;;;28.61;23.67;100341.88;5012484;28;20038;-68
2021/03/29 10:36:16;;;;;;;6.07;1.77;;;;;;;28.00;24.04;100341.22;5013543;28;20450;-69
2021/03/29 10:38:42;;;;;;;6.97;1.90;;;;;;;28.10;24.25;100336.47;5014720;28;20056;-68
2021/03/29 10:41:08;;;;;;;4.97;1.83;;;;;;;26.15;25.94;100340.00;5011727;28;20037;-68
2021/03/29 10:43:33;;;;;;;7.18;1.85;;;;;;;26.59;25.93;100339.66;5000737;28;20033;-68
2021/03/29 10:45:59;;;;;;;6.40;1.70;;;;;;;25.35;26.84;100339.94;4992839;28;20023;-67
2021/03/29 10:48:24;;;;;;;4.40;1.60;;;;;;;26.29;26.42;100346.72;5007846;28;20029;-70
2021/03/29 10:50:49;;;;;;;4.88;1.50;;;;;;;26.56;25.86;100345.75;5009852;28;20479;-68
2021/03/29 10:53:15;;;;;;;5.38;1.30;;;;;;;27.12;24.83;100340.38;5009844;28;20026;-67
2021/03/29 10:55:40;;;;;;;6.65;1.65;;;;;;;27.11;25.03;100341.47;5009832;28;20495;-68
2021/03/29 10:58:05;;;;;;;11.20;2.10;;;;;;;27.84;24.68;100332.06;5007863;28;20542;-70
2021/03/29 11:00:31;;;;;;;6.68;1.15;;;;;;;29.10;23.37;100331.03;4994310;28;20026;-72
2021/03/29 11:02:56;;;;;;;4.85;1.50;;;;;;;29.87;23.09;100320.91;5008070;28;20029;-73
2021/03/29 11:05:21;;;;;;;3.22;1.20;;;;;;;29.77;22.15;100328.56;5007452;28;20507;-72
2021/03/29 11:07:47;;;;;;;3.30;1.35;;;;;;;28.89;23.68;100330.31;5002498;28;20057;-72
2021/03/29 11:10:13;;;;;;;2.87;1.17;;;;;;;29.08;22.83;100328.53;5009204;28;20105;-73
2021/03/29 11:12:38;;;;;;;5.90;1.55;;;;;;;29.16;22.86;100327.06;5006121;28;20751;-75
2021/03/29 11:15:04;;;;;;;4.97;1.70;;;;;;;28.09;23.67;100326.47;5005016;28;20037;-72
2021/03/29 11:17:30;;;;;;;4.82;1.30;;;;;;;29.09;23.54;100326.59;5005445;28;20563;-71
2021/03/29 11:19:56;;;;;;;3.75;1.40;;;;;;;29.82;21.80;100320.97;5003934;28;20112;-71
2021/03/29 11:22:21;;;;;;;3.03;1.20;;;;;;;29.82;21.85;100315.38;5009070;28;20516;-72
2021/03/29 11:24:46;;;;;;;5.53;1.42;;;;;;;30.09;21.49;100314.81;5004109;28;20101;-72
2021/03/29 11:27:12;;;;;;;4.00;1.10;;;;;;;28.90;21.89;100309.66;5002415;28;20080;-71
2021/03/29 11:29:37;;;;;;;3.15;1.13;;;;;;;29.37;21.77;100300.72;5002523;28;20033;-72
2021/03/29 11:32:03;;;;;;;4.47;1.38;;;;;;;29.04;21.89;100311.56;5002383;28;20022;-71
2021/03/29 11:34:28;;;;;;;4.32;1.50;;;;;;;27.86;23.28;100300.06;5009327;28;20034;-71
2021/03/29 11:36:53;;;;;;;4.10;1.25;;;;;;;28.70;21.94;100305.06;5008772;28;20033;-74
2021/03/29 11:39:19;;;;;;;5.28;1.58;;;;;;;30.44;20.71;100309.94;4996377;28;20049;-72
2021/03/29 11:41:44;;;;;;;3.10;0.95;;;;;;;30.12;21.57;100302.22;5001904;28;20030;-72